Time;durP1;ratioP1;P1;durP2;ratioP2;P2;SDS_P1;SDS_P2;PMS_P1;PMS_P2;Temp;Humidity;BMP_temperature;BMP_pressure;BME280_temperature;BME280_humidity;BME280_pressure;Samples;Min_cycle;Max_cycle;Signal;HPM_P1;HPM_P2
2023/09/04 00:01:00;;;;;;;6.67;6.57;;;;;;;14.83;85.22;102468.75;5035524;28;20246;-72
2023/09/04 00:03:27;;;;;;;6.97;6.07;;;;;;;14.80;85.52;102479.81;5035479;28;20192;-72
2023/09/04 00:05:54;;;;;;;5.27;5.10;;;;;;;14.78;85.17;102470.13;5035394;28;20702;-72
2023/09/04 00:08:20;;;;;;;8.07;7.67;;;;;;;14.74;85.32;102471.41;5035263;28;20212;-72
2023/09/04 00:10:47;;;;;;;7.93;7.27;;;;;;;14.69;85.36;102465.56;5035316;28;20188;-72
2023/09/04 00:13:14;;;;;;;6.07;5.97;;;;;;;14.64;85.37;102458.75;5034909;28;20253;-72
2023/09/04 00:15:40;;;;;;;5.30;5.30;;;;;;;14.61;85.38;102456.34;5034966;28;20180;-72
2023/09/04 00:18:07;;;;;;;6.43;6.27;;;;;;;14.58;85.45;102456.63;5034761;28;20219;-72
2023/09/04 00:20:34;;;;;;;7.90;7.47;;;;;;;14.59;85.48;102469.09;5035166;28;20184;-72
2023/09/04 00:23:00;;;;;;;7.20;7.03;;;;;;;14.54;85.51;102465.97;5033885;28;20179;-72
2023/09/04 00:25:27;;;;;;;6.83;6.50;;;;;;;14.50;85.49;102467.22;5034762;28;20203;-72
2023/09/04 00:27:55;;;;;;;6.40;6.20;;;;;;;14.45;85.54;102464.06;5034909;28;20199;-72
2023/09/04 00:30:22;;;;;;;6.87;6.67;;;;;;;14.43;85.73;102451.72;5033413;28;20212;-72
2023/09/04 00:32:48;;;;;;;8.07;7.63;;;;;;;14.39;85.86;102450.28;5034898;28;20192;-72
2023/09/04 00:35:15;;;;;;;8.80;8.40;;;;;;;14.40;85.39;102452.84;5034838;28;20188;-72
2023/09/04 00:37:41;;;;;;;7.13;6.83;;;;;;;14.28;85.23;102451.19;5033294;28;20249;-72
2023/09/04 00:40:08;;;;;;;8.07;7.87;;;;;;;14.21;86.13;102444.66;5033093;28;20315;-72
2023/09/04 00:42:35;;;;;;;8.27;7.97;;;;;;;14.18;86.42;102445.75;5033117;28;20675;-72
2023/09/04 00:45:01;;;;;;;8.93;8.17;;;;;;;14.17;86.40;102443.22;5033109;28;20192;-72
2023/09/04 00:47:29;;;;;;;9.63;8.07;;;;;;;14.18;86.54;102439.53;5033088;28;20196;-72
2023/09/04 00:49:57;;;;;;;9.00;8.17;;;;;;;14.16;86.97;102439.69;5034273;28;20207;-73
2023/09/04 00:52:25;;;;;;;9.53;8.90;;;;;;;14.15;86.91;102440.66;5034229;28;20180;-73
2023/09/04 00:54:52;;;;;;;9.70;9.30;;;;;;;14.15;87.05;102446.03;5034201;28;20188;-72
2023/09/04 00:57:18;;;;;;;9.40;8.90;;;;;;;14.13;87.11;102445.28;5034172;28;20188;-72
2023/09/04 00:59:48;;;;;;;8.47;8.07;;;;;;;14.10;87.00;102447.41;5033886;28;20629;-72
2023/09/04 01:02:15;;;;;;;7.77;7.47;;;;;;;14.11;87.17;102449.13;5034365;28;20601;-72
2023/09/04 01:04:41;;;;;;;7.97;7.53;;;;;;;14.10;87.25;102447.41;5032748;28;20214;-72
2023/09/04 01:07:08;;;;;;;7.37;7.13;;;;;;;14.11;87.15;102446.44;5034244;28;20180;-72
2023/09/04 01:09:35;;;;;;;7.90;7.50;;;;;;;14.11;87.60;102441.91;5032613;28;20231;-72
2023/09/04 01:12:10;;;;;;;7.83;7.47;;;;;;;14.13;87.42;102441.78;5032593;28;20222;-72
2023/09/04 01:14:38;;;;;;;7.67;7.37;;;;;;;14.12;87.50;102440.94;5032618;28;20262;-72
2023/09/04 01:17:05;;;;;;;7.70;7.20;;;;;;;14.11;87.54;102443.75;5033832;28;20677;-72
2023/09/04 01:19:32;;;;;;;8.10;7.43;;;;;;;14.09;87.31;102445.69;5033601;28;20679;-71
2023/09/04 01:21:59;;;;;;;10.70;9.80;;;;;;;14.10;87.11;102444.72;5034004;28;20242;-72
2023/09/04 01:24:26;;;;;;;8.20;7.90;;;;;;;14.04;87.46;102445.25;5032392;28;20199;-72
2023/09/04 01:27:09;;;;;;;8.43;8.13;;;;;;;14.03;87.32;102447.09;5033662;28;20602;-72
2023/09/04 01:29:50;;;;;;;9.07;8.73;;;;;;;14.01;87.30;102442.81;5033632;28;20697;-71
2023/09/04 01:32:26;;;;;;;9.13;8.63;;;;;;;14.00;87.61;102450.03;5032555;28;20195;-72
2023/09/04 01:34:55;;;;;;;10.13;9.63;;;;;;;13.99;87.50;102442.13;5032086;28;20188;-72
2023/09/04 01:37:22;;;;;;;9.17;8.57;;;;;;;13.98;87.62;102448.47;5033481;28;20192;-72
2023/09/04 01:39:49;;;;;;;11.23;10.20;;;;;;;13.96;87.79;102445.91;5032029;28;20212;-72
2023/09/04 01:42:16;;;;;;;10.17;9.47;;;;;;;13.94;87.62;102447.03;5033427;28;20237;-72
2023/09/04 01:44:43;;;;;;;9.87;9.20;;;;;;;13.92;87.92;102441.75;5033893;28;20190;-72
2023/09/04 01:47:10;;;;;;;8.07;7.60;;;;;;;13.93;87.60;102439.94;5032099;28;20551;-72
2023/09/04 01:49:36;;;;;;;10.30;9.50;;;;;;;13.92;87.47;102439.06;5033299;28;20302;-72
2023/09/04 01:52:03;;;;;;;8.50;8.10;;;;;;;13.93;87.70;102437.25;5033582;28;20586;-72
2023/09/04 01:54:30;;;;;;;8.07;7.70;;;;;;;13.93;87.74;102432.72;5031998;28;20733;-72
2023/09/04 01:56:56;;;;;;;8.07;7.77;;;;;;;13.91;87.64;102431.16;5033808;28;20245;-72
2023/09/04 01:59:22;;;;;;;10.47;9.67;;;;;;;13.89;87.70;102431.28;5031809;28;20227;-72
2023/09/04 02:01:49;;;;;;;10.10;9.43;;;;;;;13.88;87.58;102429.56;5031950;28;20192;-72
2023/09/04 02:04:15;;;;;;;9.97;9.23;;;;;;;13.87;87.53;102429.72;5033407;28;20222;-72
2023/09/04 02:06:42;;;;;;;9.63;8.90;;;;;;;13.85;88.30;102437.91;5031897;28;20191;-72
2023/09/04 02:09:08;;;;;;;9.70;8.17;;;;;;;13.86;88.02;102447.69;5033020;28;20207;-72
2023/09/04 02:11:35;;;;;;;8.33;7.97;;;;;;;13.87;87.59;102445.84;5031837;28;20621;-72
2023/09/04 02:14:01;;;;;;;7.03;6.83;;;;;;;13.86;87.84;102450.38;5032991;28;20539;-72
2023/09/04 02:16:27;;;;;;;9.00;8.57;;;;;;;13.88;87.56;102444.84;5031783;28;20199;-72
2023/09/04 02:18:55;;;;;;;8.23;7.87;;;;;;;13.86;87.92;102438.75;5031630;28;20306;-72
2023/09/04 02:21:21;;;;;;;10.50;9.53;;;;;;;13.84;87.82;102446.09;5015393;28;20671;-72
2023/09/04 02:23:48;;;;;;;9.57;8.97;;;;;;;13.82;87.84;102442.69;5032949;28;20183;-72
2023/09/04 02:26:14;;;;;;;10.40;9.53;;;;;;;13.76;87.36;102444.06;5033262;28;20598;-72
2023/09/04 02:28:41;;;;;;;9.00;8.60;;;;;;;13.71;87.99;102438.22;5032862;28;20217;-72
2023/09/04 02:31:08;;;;;;;8.47;8.27;;;;;;;13.69;87.86;102443.75;5032452;28;20200;-72
2023/09/04 02:33:35;;;;;;;10.50;9.70;;;;;;;13.70;87.69;102441.91;5033408;28;20716;-72
2023/09/04 02:36:01;;;;;;;9.40;8.80;;;;;;;13.70;87.93;102436.53;5031578;28;20705;-72
2023/09/04 02:38:27;;;;;;;10.13;9.33;;;;;;;13.67;87.80;102432.25;5031528;28;20266;-72
2023/09/04 02:40:54;;;;;;;10.43;9.73;;;;;;;13.66;87.49;102438.59;5032729;28;20688;-72
2023/09/04 02:43:20;;;;;;;9.97;9.17;;;;;;;13.64;87.83;102439.72;5032815;28;20196;-72
2023/09/04 02:45:48;;;;;;;10.20;9.50;;;;;;;13.63;87.86;102432.66;5034173;28;20198;-72
2023/09/04 02:48:15;;;;;;;8.20;7.70;;;;;;;13.60;87.73;102427.53;5036557;28;20226;-72
2023/09/04 02:50:41;;;;;;;9.03;8.47;;;;;;;13.60;88.12;102435.59;5036754;28;20195;-72
2023/09/04 02:53:08;;;;;;;9.73;9.23;;;;;;;13.59;87.64;102439.25;5035249;28;20195;-72
2023/09/04 02:55:34;;;;;;;7.47;7.27;;;;;;;13.59;88.17;102434.75;5035189;28;20710;-72
2023/09/04 02:58:01;;;;;;;8.87;8.37;;;;;;;13.62;88.01;102422.91;5035316;28;20200;-71
2023/09/04 03:00:27;;;;;;;8.10;7.80;;;;;;;13.63;88.04;102424.59;5036573;28;20239;-71
2023/09/04 03:02:55;;;;;;;8.57;8.23;;;;;;;13.61;87.99;102432.78;5036324;28;20600;-71
2023/09/04 03:05:21;;;;;;;8.23;7.73;;;;;;;13.58;88.00;102424.97;5034998;28;20651;-72
2023/09/04 03:07:48;;;;;;;9.57;8.90;;;;;;;13.59;87.71;102423.13;5035688;28;20203;-72
2023/09/04 03:10:14;;;;;;;9.87;8.20;;;;;;;13.54;88.12;102418.16;5036446;28;20191;-72
2023/09/04 03:12:41;;;;;;;7.60;7.33;;;;;;;13.51;88.24;102423.78;5035983;28;20200;-72
2023/09/04 03:15:07;;;;;;;9.53;8.70;;;;;;;13.49;88.08;102419.53;5034829;28;20562;-72
2023/09/04 03:17:37;;;;;;;8.33;7.93;;;;;;;13.47;87.85;102427.72;5034816;28;20646;-72
2023/09/04 03:20:05;;;;;;;14.37;8.77;;;;;;;13.42;87.96;102413.81;5034588;28;20216;-72
2023/09/04 03:22:32;;;;;;;9.13;8.53;;;;;;;13.41;88.16;102408.59;5034993;28;20660;-73
2023/09/04 03:24:59;;;;;;;12.73;11.83;;;;;;;13.40;88.34;102415.78;5034697;28;20569;-73
2023/09/04 03:27:28;;;;;;;11.07;10.30;;;;;;;13.37;87.93;102413.34;5034631;28;20246;-73
2023/09/04 03:29:55;;;;;;;16.03;11.23;;;;;;;13.38;88.36;102415.06;5034724;28;20211;-72
2023/09/04 03:32:22;;;;;;;9.67;9.23;;;;;;;13.38;88.20;102412.38;5034494;28;20196;-72
2023/09/04 03:34:48;;;;;;;10.90;9.80;;;;;;;13.42;88.16;102405.75;5035742;28;20280;-72
2023/09/04 03:37:15;;;;;;;11.87;10.60;;;;;;;13.41;88.65;102412.09;5035979;28;20195;-72
2023/09/04 03:39:41;;;;;;;9.13;8.70;;;;;;;13.39;88.57;102406.03;5035481;28;20685;-72
2023/09/04 03:42:08;;;;;;;8.77;8.47;;;;;;;13.37;88.33;102405.28;5034365;28;20218;-72
2023/09/04 03:44:34;;;;;;;11.10;10.00;;;;;;;13.33;88.63;102403.84;5034318;28;20191;-72
2023/09/04 03:47:01;;;;;;;9.63;9.07;;;;;;;13.34;88.67;102413.59;5034247;28;20290;-72
2023/09/04 03:49:27;;;;;;;9.80;8.87;;;;;;;13.35;88.74;102412.63;5034354;28;20605;-72
2023/09/04 03:51:54;;;;;;;10.07;9.40;;;;;;;13.36;88.47;102422.41;5035464;28;20188;-72
2023/09/04 03:54:22;;;;;;;12.63;11.43;;;;;;;13.39;88.56;102424.84;5035670;28;20188;-72
2023/09/04 03:56:49;;;;;;;10.40;9.70;;;;;;;13.36;88.62;102419.72;5034040;28;20203;-72
2023/09/04 03:59:16;;;;;;;9.80;9.17;;;;;;;13.35;88.47;102418.00;5035227;28;20265;-72
2023/09/04 04:01:43;;;;;;;13.90;12.80;;;;;;;13.32;88.70;102420.97;5035300;28;20195;-72
2023/09/04 04:04:11;;;;;;;10.87;10.10;;;;;;;13.31;88.50;102430.00;5035209;28;20656;-72
2023/09/04 04:06:38;;;;;;;9.97;9.37;;;;;;;13.28;89.27;102420.34;5035389;28;20180;-72
2023/09/04 04:09:06;;;;;;;9.67;8.90;;;;;;;13.27;88.49;102412.44;5035091;28;20203;-74
2023/09/04 04:11:36;;;;;;;12.70;11.50;;;;;;;13.20;88.47;102409.38;5035323;28;20275;-73
2023/09/04 04:14:03;;;;;;;9.57;8.83;;;;;;;13.17;88.65;102404.28;5034879;28;20242;-73
2023/09/04 04:16:36;;;;;;;10.70;10.10;;;;;;;13.15;88.50;102402.72;5035522;28;20184;-73
2023/09/04 04:19:02;;;;;;;8.40;8.10;;;;;;;13.08;88.70;102406.81;5033616;28;20278;-72
2023/09/04 04:21:29;;;;;;;8.73;8.43;;;;;;;13.04;88.64;102402.69;5035000;28;20203;-72
2023/09/04 04:23:55;;;;;;;9.03;8.60;;;;;;;13.00;88.71;102398.56;5033555;28;20191;-72
2023/09/04 04:26:22;;;;;;;9.40;8.47;;;;;;;12.98;88.23;102404.06;5033519;28;20199;-72
2023/09/04 04:28:48;;;;;;;11.97;10.87;;;;;;;12.95;87.96;102403.44;5035226;28;20282;-73
2023/09/04 04:31:15;;;;;;;8.73;8.23;;;;;;;12.88;88.15;102402.25;5033411;28;20238;-73
2023/09/04 04:33:42;;;;;;;14.13;9.63;;;;;;;12.81;88.35;102402.75;5033348;28;20295;-73
2023/09/04 04:36:09;;;;;;;7.73;7.53;;;;;;;12.77;89.28;102395.91;5033389;28;20208;-72
2023/09/04 04:38:36;;;;;;;9.63;8.80;;;;;;;12.77;88.14;102397.78;5034481;28;20216;-72
2023/09/04 04:41:04;;;;;;;11.20;10.53;;;;;;;12.75;88.57;102397.88;5033177;28;20212;-72
2023/09/04 04:43:31;;;;;;;9.20;8.80;;;;;;;12.73;88.40;102399.84;5033189;28;20203;-72
2023/09/04 04:45:58;;;;;;;11.97;10.83;;;;;;;12.76;88.58;102399.59;5033140;28;20192;-72
2023/09/04 04:48:25;;;;;;;11.93;10.43;;;;;;;12.74;88.50;102396.19;5032987;28;20211;-72
2023/09/04 04:50:52;;;;;;;9.40;8.67;;;;;;;12.70;88.39;102407.28;5034234;28;20183;-72
2023/09/04 04:53:23;;;;;;;14.47;11.30;;;;;;;12.68;88.49;102407.44;5033014;28;20246;-73
2023/09/04 04:55:49;;;;;;;10.47;9.53;;;;;;;12.67;88.30;102411.09;5032987;28;20671;-73
2023/09/04 04:58:17;;;;;;;14.87;10.80;;;;;;;12.64;88.24;102414.03;5033002;28;20222;-72
2023/09/04 05:00:43;;;;;;;13.10;11.93;;;;;;;12.61;88.47;102422.28;5032921;28;20219;-72
2023/09/04 05:03:10;;;;;;;12.23;10.23;;;;;;;12.65;88.73;102423.75;5033618;28;20187;-72
2023/09/04 05:05:36;;;;;;;13.77;12.43;;;;;;;12.67;89.01;102421.81;5032745;28;20200;-73
2023/09/04 05:08:04;;;;;;;12.27;11.03;;;;;;;12.70;88.92;102421.56;5032185;28;20188;-73
2023/09/04 05:10:31;;;;;;;19.17;11.43;;;;;;;12.72;89.11;102413.41;5032615;28;20199;-73
2023/09/04 05:12:57;;;;;;;12.70;11.80;;;;;;;12.78;89.39;102412.88;5033920;28;20274;-73
2023/09/04 05:15:24;;;;;;;12.10;11.00;;;;;;;12.82;89.12;102414.34;5032609;28;20383;-73
2023/09/04 05:17:50;;;;;;;12.20;11.00;;;;;;;12.84;89.33;102409.72;5034005;28;20267;-72
2023/09/04 05:20:17;;;;;;;12.17;11.17;;;;;;;12.87;89.53;102412.13;5033713;28;20670;-73
2023/09/04 05:22:44;;;;;;;13.63;11.53;;;;;;;12.93;89.36;102405.41;5032477;28;20250;-73
2023/09/04 05:25:11;;;;;;;15.80;10.23;;;;;;;12.94;89.50;102415.19;5033623;28;20238;-73
2023/09/04 05:27:38;;;;;;;12.30;11.30;;;;;;;12.92;89.58;102417.97;5032353;28;20274;-73
2023/09/04 05:30:06;;;;;;;13.30;11.97;;;;;;;12.91;89.53;102407.38;5033584;28;20199;-73
2023/09/04 05:32:33;;;;;;;10.70;9.97;;;;;;;12.90;89.53;102401.13;5033570;28;20202;-73
2023/09/04 05:34:59;;;;;;;14.83;13.33;;;;;;;12.93;89.83;102402.72;5033492;28;20270;-73
2023/09/04 05:37:26;;;;;;;13.87;12.50;;;;;;;12.97;89.92;102405.03;5033514;28;20210;-73
2023/09/04 05:39:53;;;;;;;21.33;12.60;;;;;;;12.99;90.10;102397.69;5033307;28;20219;-73
2023/09/04 05:42:20;;;;;;;13.47;12.23;;;;;;;13.11;90.02;102398.56;5033407;28;20188;-74
2023/09/04 05:44:46;;;;;;;11.20;10.40;;;;;;;13.17;90.16;102404.28;5033372;28;20191;-73
2023/09/04 05:47:12;;;;;;;13.60;12.30;;;;;;;13.24;89.83;102409.97;5033917;28;20643;-73
2023/09/04 05:49:39;;;;;;;16.23;13.23;;;;;;;13.29;90.02;102410.44;5033334;28;20207;-73
2023/09/04 05:52:06;;;;;;;13.40;12.03;;;;;;;13.31;89.62;102410.34;5033294;28;20191;-74
2023/09/04 05:54:32;;;;;;;13.10;12.07;;;;;;;13.33;89.94;102419.09;5033272;28;20195;-73
2023/09/04 05:56:58;;;;;;;17.57;12.97;;;;;;;13.36;89.56;102408.97;5033226;28;20253;-73
2023/09/04 05:59:26;;;;;;;16.47;12.40;;;;;;;13.42;89.70;102421.03;5033188;28;20219;-73
2023/09/04 06:01:52;;;;;;;15.77;14.27;;;;;;;13.46;90.08;102426.00;5033102;28;20261;-73
2023/09/04 06:04:19;;;;;;;19.03;14.77;;;;;;;13.51;90.49;102414.88;5033721;28;20267;-73
2023/09/04 06:06:48;;;;;;;14.53;13.30;;;;;;;13.57;90.12;102409.84;5033390;28;20242;-73
2023/09/04 06:09:15;;;;;;;21.53;14.20;;;;;;;13.63;90.02;102405.78;5033286;28;20211;-72
2023/09/04 06:11:41;;;;;;;13.53;11.90;;;;;;;13.70;90.24;102409.66;5033328;28;20593;-72
2023/09/04 06:14:07;;;;;;;14.57;13.20;;;;;;;13.76;90.31;102406.44;5032940;28;20250;-72
2023/09/04 06:16:34;;;;;;;14.97;13.50;;;;;;;13.84;89.78;102409.31;5033553;28;20196;-72
2023/09/04 06:19:01;;;;;;;15.00;13.63;;;;;;;13.88;89.68;102410.75;5032891;28;20223;-72
2023/09/04 06:21:28;;;;;;;17.03;13.67;;;;;;;13.96;89.84;102405.56;5035528;28;20749;-72
2023/09/04 06:23:55;;;;;;;15.30;13.73;;;;;;;13.98;89.58;102410.81;5036995;28;20742;-72
2023/09/04 06:26:21;;;;;;;13.57;12.30;;;;;;;14.06;88.91;102411.00;5036992;28;20199;-72
2023/09/04 06:28:48;;;;;;;14.00;12.57;;;;;;;14.15;89.22;102408.38;5037233;28;20718;-72
2023/09/04 06:31:15;;;;;;;14.37;12.93;;;;;;;14.21;89.25;102412.38;5037258;28;20176;-72
2023/09/04 06:33:43;;;;;;;15.47;13.87;;;;;;;14.28;89.37;102410.00;5037178;28;20233;-72
2023/09/04 06:36:10;;;;;;;17.80;14.33;;;;;;;14.35;89.29;102403.97;5037395;28;20184;-73
2023/09/04 06:38:36;;;;;;;18.50;12.43;;;;;;;14.43;88.92;102398.75;5036729;28;20212;-72
2023/09/04 06:41:03;;;;;;;15.30;13.90;;;;;;;14.51;88.83;102398.91;5036700;28;20305;-72
2023/09/04 06:43:29;;;;;;;15.73;12.57;;;;;;;14.59;88.90;102399.13;5036765;28;20196;-72
2023/09/04 06:45:58;;;;;;;13.50;12.20;;;;;;;14.68;88.30;102407.34;5036659;28;20279;-72
2023/09/04 06:48:25;;;;;;;14.53;13.17;;;;;;;14.76;87.97;102407.50;5036594;28;20703;-71
2023/09/04 06:50:52;;;;;;;18.77;12.73;;;;;;;14.81;87.75;102395.31;5036549;28;20184;-72
2023/09/04 06:53:21;;;;;;;20.97;14.77;;;;;;;14.94;86.50;102393.22;5036483;28;20196;-72
2023/09/04 06:55:48;;;;;;;14.80;13.30;;;;;;;15.00;86.09;102389.97;5036480;28;20195;-72
2023/09/04 06:58:14;;;;;;;14.73;13.37;;;;;;;15.05;86.18;102394.94;5036659;28;20217;-72
2023/09/04 07:00:41;;;;;;;14.93;13.63;;;;;;;15.12;86.10;102397.94;5036346;28;20246;-72
2023/09/04 07:03:07;;;;;;;21.93;12.63;;;;;;;15.22;85.73;102396.09;5036295;28;20664;-72
2023/09/04 07:05:34;;;;;;;14.50;13.10;;;;;;;15.30;86.06;102393.53;5036301;28;20188;-72
2023/09/04 07:08:01;;;;;;;13.13;12.00;;;;;;;15.40;85.81;102399.81;5036171;28;20184;-72
2023/09/04 07:10:28;;;;;;;11.13;10.53;;;;;;;15.47;86.39;102399.09;5036731;28;20230;-72
2023/09/04 07:12:54;;;;;;;11.07;10.07;;;;;;;15.56;85.63;102394.72;5035596;28;20203;-72
2023/09/04 07:15:20;;;;;;;11.70;10.60;;;;;;;15.61;85.89;102397.84;5034944;28;20191;-72
2023/09/04 07:17:47;;;;;;;12.80;10.30;;;;;;;15.69;85.55;102394.41;5034888;28;20258;-72
2023/09/04 07:20:14;;;;;;;17.60;11.30;;;;;;;15.77;85.39;102398.09;5034783;28;20269;-72
2023/09/04 07:22:41;;;;;;;13.60;11.27;;;;;;;15.84;85.40;102398.34;5034840;28;20192;-72
2023/09/04 07:25:08;;;;;;;11.37;10.20;;;;;;;15.94;85.26;102399.19;5035371;28;20596;-72
2023/09/04 07:27:34;;;;;;;10.23;9.67;;;;;;;16.02;85.16;102395.75;5034996;28;20603;-72
2023/09/04 07:30:01;;;;;;;12.30;11.30;;;;;;;16.08;84.46;102393.34;5034916;28;20554;-72
2023/09/04 07:32:27;;;;;;;11.23;10.50;;;;;;;16.14;84.40;102394.56;5034511;28;20545;-72
2023/09/04 07:34:56;;;;;;;11.70;10.80;;;;;;;16.20;84.08;102402.09;5034915;28;20541;-72
2023/09/04 07:37:25;;;;;;;12.53;11.07;;;;;;;16.26;83.98;102398.78;5034855;28;20191;-72
2023/09/04 07:39:52;;;;;;;10.13;9.70;;;;;;;16.33;83.31;102394.53;5034437;28;20269;-72
2023/09/04 07:42:19;;;;;;;9.33;9.03;;;;;;;16.35;83.03;102408.69;5034420;28;20207;-72
2023/09/04 07:44:46;;;;;;;9.80;9.40;;;;;;;16.41;83.03;102403.56;5034455;28;20242;-72
2023/09/04 07:47:12;;;;;;;13.60;12.07;;;;;;;16.47;82.86;102402.09;5034728;28;20200;-72
2023/09/04 07:49:39;;;;;;;16.20;10.53;;;;;;;16.58;82.66;102401.09;5034348;28;20210;-72
2023/09/04 07:52:05;;;;;;;14.43;12.17;;;;;;;16.66;82.59;102406.59;5034595;28;20234;-72
2023/09/04 07:54:32;;;;;;;11.97;10.77;;;;;;;16.78;81.88;102408.09;5034877;28;20237;-72
2023/09/04 07:57:01;;;;;;;10.20;9.40;;;;;;;16.90;82.00;102413.13;5034298;28;20188;-72
2023/09/04 07:59:28;;;;;;;10.33;9.47;;;;;;;17.01;81.17;102412.09;5034163;28;20227;-72
2023/09/04 08:01:55;;;;;;;7.77;7.47;;;;;;;17.07;81.50;102408.75;5034171;28;20208;-72
2023/09/04 08:04:21;;;;;;;9.77;9.20;;;;;;;17.12;81.05;102401.03;5034179;28;20196;-73
2023/09/04 08:06:47;;;;;;;9.43;8.73;;;;;;;17.22;80.82;102404.53;5034132;28;20196;-72
2023/09/04 08:09:15;;;;;;;9.17;8.73;;;;;;;17.35;80.79;102402.28;5034041;28;20261;-72
2023/09/04 08:11:41;;;;;;;12.23;10.47;;;;;;;17.46;80.18;102412.03;5034062;28;20223;-72
2023/09/04 08:14:08;;;;;;;7.67;7.23;;;;;;;17.54;80.04;102409.38;4999103;28;1033565;-72
2023/09/04 08:16:34;;;;;;;9.07;8.33;;;;;;;17.64;80.22;102415.59;5035007;28;20192;-72
2023/09/04 08:19:01;;;;;;;8.77;8.27;;;;;;;17.75;79.16;102406.38;5034852;28;20204;-72
2023/09/04 08:21:27;;;;;;;9.07;8.30;;;;;;;17.84;80.04;102408.13;5035060;28;20586;-72
2023/09/04 08:23:54;;;;;;;10.57;8.13;;;;;;;17.95;78.30;102399.75;5034840;28;20195;-72
2023/09/04 08:26:20;;;;;;;14.13;7.63;;;;;;;18.05;78.31;102397.78;5035349;28;20726;-72
2023/09/04 08:28:47;;;;;;;7.33;6.60;;;;;;;18.20;77.11;102395.34;5034693;28;20204;-72
2023/09/04 08:31:13;;;;;;;8.27;7.87;;;;;;;18.27;78.05;102388.28;5034708;28;20592;-72
2023/09/04 08:33:40;;;;;;;8.83;8.17;;;;;;;18.40;77.86;102393.25;5034897;28;20188;-72
2023/09/04 08:36:06;;;;;;;8.37;7.60;;;;;;;18.42;76.74;102400.19;5034894;28;20195;-72
2023/09/04 08:38:33;;;;;;;7.20;7.00;;;;;;;18.52;76.46;102389.22;5034512;28;20239;-72
2023/09/04 08:41:04;;;;;;;7.30;7.00;;;;;;;18.59;75.65;102388.44;5034461;28;20215;-72
2023/09/04 08:43:31;;;;;;;10.03;7.03;;;;;;;18.61;75.24;102391.84;5034019;28;20596;-72
2023/09/04 08:46:00;;;;;;;7.93;7.67;;;;;;;18.68;76.15;102392.03;5034401;28;20195;-72
2023/09/04 08:48:30;;;;;;;7.87;7.13;;;;;;;18.73;76.04;102391.53;5034522;28;20401;-70
2023/09/04 08:50:58;;;;;;;8.17;7.10;;;;;;;18.75;75.86;102393.09;5034641;28;20172;-70
2023/09/04 08:53:25;;;;;;;6.80;6.60;;;;;;;18.78;75.83;102386.47;5034265;28;20183;-70
2023/09/04 08:55:54;;;;;;;7.40;6.80;;;;;;;18.83;75.76;102381.41;5034487;28;20606;-70
2023/09/04 08:58:21;;;;;;;6.77;6.57;;;;;;;18.87;75.65;102380.94;5034072;28;20286;-70
2023/09/04 09:00:48;;;;;;;7.47;6.63;;;;;;;19.01;75.75;102382.97;5034036;28;20212;-70
2023/09/04 09:03:16;;;;;;;7.17;6.73;;;;;;;19.12;75.58;102384.53;5034331;28;20667;-70
2023/09/04 09:05:46;;;;;;;6.53;6.27;;;;;;;19.20;75.41;102378.25;5034275;28;20195;-70
2023/09/04 09:08:12;;;;;;;5.03;4.93;;;;;;;19.25;74.97;102378.63;5034148;28;20630;-70
2023/09/04 09:10:40;;;;;;;6.30;6.20;;;;;;;19.32;74.22;102374.19;5032750;28;20652;-70
2023/09/04 09:13:07;;;;;;;8.33;6.97;;;;;;;19.49;74.59;102373.22;5033797;28;20250;-70
2023/09/04 09:15:34;;;;;;;7.77;7.37;;;;;;;19.67;74.39;102371.19;5033894;28;20219;-71
2023/09/04 09:18:02;;;;;;;7.10;6.93;;;;;;;19.74;73.12;102361.34;5033763;28;20188;-70
2023/09/04 09:20:31;;;;;;;6.57;6.47;;;;;;;19.88;72.81;102360.63;5033816;28;20223;-70
2023/09/04 09:22:58;;;;;;;5.97;5.97;;;;;;;19.94;73.13;102364.53;5033977;28;20202;-72
2023/09/04 09:25:26;;;;;;;7.03;6.80;;;;;;;20.02;73.17;102359.09;5033691;28;20270;-71
2023/09/04 09:28:04;;;;;;;7.57;7.07;;;;;;;20.22;71.80;102359.53;5033909;28;20200;-71
2023/09/04 09:30:38;;;;;;;6.70;6.30;;;;;;;20.25;72.08;102361.88;5034243;28;20183;-71
2023/09/04 09:33:12;;;;;;;6.57;6.37;;;;;;;20.29;73.17;102353.25;5033860;28;20180;-71
2023/09/04 09:35:42;;;;;;;5.77;5.67;;;;;;;20.42;72.54;102352.69;5033622;28;20186;-71
2023/09/04 09:38:09;;;;;;;9.20;6.57;;;;;;;20.49;72.82;102354.53;5033472;28;20218;-71
2023/09/04 09:40:36;;;;;;;6.97;6.67;;;;;;;20.58;70.35;102349.88;5033384;28;20203;-71
2023/09/04 09:43:03;;;;;;;7.83;6.77;;;;;;;20.63;70.44;102361.06;5033457;28;20196;-71
2023/09/04 09:45:34;;;;;;;6.87;6.63;;;;;;;20.71;69.34;102362.91;5033410;28;20210;-71
2023/09/04 09:48:05;;;;;;;7.30;6.70;;;;;;;20.66;70.59;102363.47;5033608;28;20176;-71
2023/09/04 09:50:32;;;;;;;6.60;6.07;;;;;;;20.74;69.85;102355.25;5033553;28;20228;-71
2023/09/04 09:53:00;;;;;;;6.67;6.37;;;;;;;20.80;70.31;102348.22;5033340;28;20238;-71
2023/09/04 09:55:29;;;;;;;6.33;5.87;;;;;;;20.85;70.02;102335.81;5033192;28;20738;-71
2023/09/04 09:57:58;;;;;;;5.95;5.75;;;;;;;20.86;69.81;102340.22;5033171;28;20192;-70
2023/09/04 10:00:25;;;;;;;6.20;5.90;;;;;;;20.93;70.32;102337.63;5033245;28;20184;-71
2023/09/04 10:02:53;;;;;;;11.40;5.73;;;;;;;21.01;69.06;102334.84;5033704;28;20203;-71
2023/09/04 10:05:23;;;;;;;8.38;5.88;;;;;;;21.12;67.44;102328.16;5033092;28;20219;-71
2023/09/04 10:07:58;;;;;;;5.10;4.95;;;;;;;21.08;68.01;102333.09;5033290;28;20658;-71
2023/09/04 10:10:25;;;;;;;4.88;4.68;;;;;;;21.09;68.05;102323.06;5033645;28;20180;-72
2023/09/04 10:13:03;;;;;;;5.18;5.18;;;;;;;21.06;67.82;102317.97;5032979;28;20218;-71
2023/09/04 10:15:34;;;;;;;5.17;4.93;;;;;;;21.15;68.67;102316.94;5033299;28;20184;-71
2023/09/04 10:18:06;;;;;;;5.25;5.13;;;;;;;21.28;68.19;102315.28;5033385;28;20251;-72
2023/09/04 10:20:35;;;;;;;5.88;5.63;;;;;;;21.42;66.79;102311.78;5033364;28;20172;-71
2023/09/04 10:23:08;;;;;;;4.80;4.80;;;;;;;21.58;66.80;102312.63;5032914;28;20691;-71
2023/09/04 10:26:01;;;;;;;6.55;5.95;;;;;;;21.67;65.73;102315.09;5033584;28;20581;-71
2023/09/04 10:28:35;;;;;;;5.60;5.38;;;;;;;21.72;64.57;102301.78;5033282;28;20262;-71
2023/09/04 10:31:11;;;;;;;6.15;5.95;;;;;;;21.74;64.87;102307.00;5032971;28;20176;-71
2023/09/04 10:33:38;;;;;;;6.25;5.90;;;;;;;21.71;64.38;102297.34;5032856;28;20246;-71
2023/09/04 10:36:05;;;;;;;8.40;6.10;;;;;;;21.79;63.87;102300.00;5033164;28;20220;-71
2023/09/04 10:38:33;;;;;;;5.75;5.45;;;;;;;21.83;62.35;102297.72;5032790;28;20254;-70
2023/09/04 10:41:00;;;;;;;6.05;5.40;;;;;;;21.83;60.29;102295.84;5032739;28;20236;-71
2023/09/04 10:43:43;;;;;;;5.90;5.63;;;;;;;21.87;62.27;102294.44;5032729;28;20192;-71
2023/09/04 10:46:13;;;;;;;5.15;5.07;;;;;;;21.91;59.63;102286.75;5032840;28;20625;-71
2023/09/04 10:48:41;;;;;;;5.72;5.18;;;;;;;21.92;60.33;102293.03;5032950;28;20273;-70
2023/09/04 10:51:31;;;;;;;10.35;5.15;;;;;;;21.95;60.61;102281.78;5033199;28;20188;-71
2023/09/04 10:54:07;;;;;;;4.20;4.18;;;;;;;21.93;60.93;102283.88;5032985;28;20180;-71
2023/09/04 10:56:59;;;;;;;5.43;5.13;;;;;;;21.98;60.43;102281.44;5032912;28;20179;-71
2023/09/04 10:59:26;;;;;;;5.00;4.95;;;;;;;21.99;59.36;102274.94;5032589;28;20330;-70
2023/09/04 11:01:54;;;;;;;5.43;5.20;;;;;;;22.01;59.73;102273.72;5032567;28;20208;-71
2023/09/04 11:04:35;;;;;;;5.80;5.60;;;;;;;22.03;59.55;102268.91;5033126;28;20209;-71
2023/09/04 11:07:20;;;;;;;4.80;4.80;;;;;;;22.05;60.82;102269.59;5034523;28;20172;-71
2023/09/04 11:09:51;;;;;;;4.90;4.70;;;;;;;22.08;60.11;102262.91;5036106;28;20626;-71
2023/09/04 11:12:19;;;;;;;4.75;4.55;;;;;;;22.11;59.12;102257.06;5036113;28;20172;-71
2023/09/04 11:14:47;;;;;;;5.55;5.53;;;;;;;22.14;58.28;102256.72;5036188;28;20799;-71
2023/09/04 11:17:17;;;;;;;4.68;4.65;;;;;;;22.16;59.06;102260.91;5036325;28;20242;-71
2023/09/04 11:19:45;;;;;;;4.13;4.13;;;;;;;22.20;59.23;102256.78;5036268;28;20224;-71
2023/09/04 11:22:16;;;;;;;4.47;4.15;;;;;;;22.32;57.98;102260.69;5036194;28;20207;-71